Time;durP1;ratioP1;P1;durP2;ratioP2;P2;SDS_P1;SDS_P2;PMS_P1;PMS_P2;Temp;Humidity;BMP_temperature;BMP_pressure;BME280_temperature;BME280_humidity;BME280_pressure;Samples;Min_cycle;Max_cycle;Signal;HPM_P1;HPM_P2
2024/02/06 00:00:51;;;;;;;16.33;2.75;;;9.60;99.90;;;;;;5023387;28;20146;-63
2024/02/06 00:03:18;;;;;;;7.00;2.30;;;9.60;99.90;;;;;;5019799;28;20068;-63
2024/02/06 00:05:44;;;;;;;7.25;1.90;;;9.60;99.90;;;;;;5022327;28;20142;-63
2024/02/06 00:08:09;;;;;;;13.10;2.83;;;9.60;99.90;;;;;;5008521;28;20668;-63
2024/02/06 00:10:35;;;;;;;7.45;2.42;;;9.60;99.90;;;;;;5011969;28;20048;-63
2024/02/06 00:13:01;;;;;;;9.98;2.08;;;9.60;99.90;;;;;;5023527;28;20038;-63
2024/02/06 00:15:26;;;;;;;8.27;1.50;;;9.60;99.90;;;;;;5004302;28;20392;-63
2024/02/06 00:17:52;;;;;;;5.10;1.88;;;9.70;99.90;;;;;;5025038;28;20080;-63
2024/02/06 00:20:19;;;;;;;11.68;2.60;;;9.70;99.90;;;;;;5020974;28;20048;-63
2024/02/06 00:22:46;;;;;;;6.32;1.67;;;9.70;99.90;;;;;;5006794;28;20621;-63
2024/02/06 00:25:12;;;;;;;7.03;1.95;;;9.70;99.90;;;;;;5022140;28;20415;-63
2024/02/06 00:27:39;;;;;;;11.27;1.58;;;9.70;99.90;;;;;;5027291;28;20041;-63
2024/02/06 00:30:05;;;;;;;7.82;2.33;;;9.70;99.90;;;;;;4988516;28;20080;-63
2024/02/06 00:32:31;;;;;;;3.70;1.75;;;9.70;99.90;;;;;;5021533;28;20111;-63
2024/02/06 00:34:59;;;;;;;6.38;1.67;;;9.70;99.90;;;;;;5021432;28;20408;-63
2024/02/06 00:37:31;;;;;;;3.40;1.42;;;9.70;99.90;;;;;;5022343;28;20522;-63
2024/02/06 00:39:57;;;;;;;8.50;1.83;;;9.70;99.90;;;;;;5019119;28;20049;-63
2024/02/06 00:42:23;;;;;;;10.77;2.30;;;9.60;99.90;;;;;;5017513;28;20050;-63
2024/02/06 00:44:50;;;;;;;3.50;1.02;;;9.60;99.90;;;;;;5021020;28;20095;-63
2024/02/06 00:47:16;;;;;;;13.40;2.75;;;9.60;99.90;;;;;;5026476;28;20049;-63
2024/02/06 00:49:42;;;;;;;5.20;1.52;;;9.60;99.90;;;;;;5022201;28;20037;-63
2024/02/06 00:52:08;;;;;;;13.63;2.95;;;9.60;99.90;;;;;;5021064;28;20768;-63
2024/02/06 00:54:33;;;;;;;13.77;2.60;;;9.60;99.90;;;;;;5003652;28;20120;-63
2024/02/06 00:56:59;;;;;;;19.85;3.05;;;9.60;99.90;;;;;;5030261;28;20046;-63
2024/02/06 00:59:25;;;;;;;6.10;2.15;;;9.60;99.90;;;;;;5021008;28;20046;-63
2024/02/06 01:01:52;;;;;;;4.75;1.75;;;9.60;99.90;;;;;;5026236;28;20045;-63
2024/02/06 01:04:18;;;;;;;2.40;1.13;;;9.60;99.90;;;;;;5017219;28;20038;-63
2024/02/06 01:06:43;;;;;;;9.77;1.90;;;9.60;99.90;;;;;;5023178;28;20044;-64
2024/02/06 01:09:11;;;;;;;4.45;1.40;;;9.60;99.90;;;;;;5016291;28;20305;-63
2024/02/06 01:11:37;;;;;;;3.50;1.42;;;9.50;99.90;;;;;;5026124;28;20046;-63
2024/02/06 01:14:02;;;;;;;6.70;2.53;;;9.60;99.90;;;;;;5018740;28;20056;-63
2024/02/06 01:16:28;;;;;;;23.80;5.68;;;9.60;99.90;;;;;;5007110;28;20053;-63
2024/02/06 01:18:54;;;;;;;7.32;1.63;;;9.50;99.90;;;;;;5042851;28;20041;-62
2024/02/06 01:21:20;;;;;;;2.95;1.52;;;9.50;99.90;;;;;;5027953;28;20038;-63
2024/02/06 01:23:46;;;;;;;13.02;2.72;;;9.50;99.90;;;;;;5026457;28;20104;-63
2024/02/06 01:26:13;;;;;;;5.60;1.98;;;9.60;99.90;;;;;;5005611;28;20041;-63
2024/02/06 01:28:38;;;;;;;16.23;2.88;;;9.60;99.90;;;;;;5035006;28;20037;-63
2024/02/06 01:31:04;;;;;;;17.08;2.88;;;9.60;99.90;;;;;;5013511;28;20404;-63
2024/02/06 01:33:30;;;;;;;12.02;2.53;;;9.60;99.90;;;;;;5003516;28;20030;-63
2024/02/06 01:35:56;;;;;;;11.38;2.58;;;9.60;99.90;;;;;;5030653;28;20114;-63
2024/02/06 01:38:22;;;;;;;8.75;1.95;;;9.60;99.90;;;;;;5028999;28;20241;-63
2024/02/06 01:40:48;;;;;;;2.03;1.33;;;9.60;99.90;;;;;;5022489;28;20053;-64
2024/02/06 01:43:14;;;;;;;11.30;2.20;;;9.60;99.90;;;;;;4988279;28;20053;-63
2024/02/06 01:45:40;;;;;;;6.20;1.70;;;9.60;99.90;;;;;;5007281;28;20054;-63
2024/02/06 01:48:11;;;;;;;4.50;1.45;;;9.60;99.90;;;;;;5022934;28;20052;-63
2024/02/06 01:50:37;;;;;;;4.57;1.50;;;9.60;99.90;;;;;;5006273;28;20033;-63
2024/02/06 01:53:06;;;;;;;14.45;2.22;;;9.60;99.90;;;;;;5006204;28;20172;-63
2024/02/06 01:55:31;;;;;;;7.28;2.20;;;9.70;99.90;;;;;;5026726;28;20095;-63
2024/02/06 01:57:57;;;;;;;10.68;2.70;;;9.70;99.90;;;;;;5028121;28;20037;-63
2024/02/06 02:00:24;;;;;;;11.23;1.85;;;9.60;99.90;;;;;;5022876;28;20336;-63
2024/02/06 02:02:54;;;;;;;5.30;2.47;;;9.60;99.90;;;;;;5023981;28;20123;-63
2024/02/06 02:05:19;;;;;;;9.82;2.97;;;9.60;99.90;;;;;;5023613;28;20042;-63
2024/02/06 02:07:46;;;;;;;17.55;2.67;;;9.60;99.90;;;;;;5023287;28;20052;-63
2024/02/06 02:10:11;;;;;;;8.23;1.73;;;9.70;99.90;;;;;;4995089;28;20281;-63
2024/02/06 02:12:38;;;;;;;8.88;1.88;;;9.70;99.90;;;;;;5026389;28;20136;-63
2024/02/06 02:15:04;;;;;;;13.32;2.58;;;9.60;99.90;;;;;;5028200;28;20594;-63
2024/02/06 02:17:30;;;;;;;9.10;1.98;;;9.60;99.90;;;;;;5008402;28;20084;-63
2024/02/06 02:19:56;;;;;;;16.17;3.17;;;9.60;99.90;;;;;;5022582;28;20084;-63
2024/02/06 02:22:22;;;;;;;17.58;3.50;;;9.70;99.90;;;;;;5022287;28;20634;-63
2024/02/06 02:24:50;;;;;;;10.27;2.05;;;9.70;99.90;;;;;;5006356;28;20059;-63
2024/02/06 02:27:17;;;;;;;4.38;1.52;;;9.70;99.90;;;;;;5029880;28;20049;-63
2024/02/06 02:29:43;;;;;;;17.20;2.78;;;9.70;99.90;;;;;;5030007;28;20049;-63
2024/02/06 02:32:10;;;;;;;15.23;2.38;;;9.70;99.90;;;;;;5021950;28;20424;-63
2024/02/06 02:34:36;;;;;;;9.98;1.77;;;9.70;99.90;;;;;;5024715;28;20076;-63
2024/02/06 02:37:02;;;;;;;5.47;1.73;;;9.70;99.90;;;;;;4984466;28;20097;-63
2024/02/06 02:39:28;;;;;;;12.75;2.28;;;9.70;99.90;;;;;;4987326;28;20041;-63
2024/02/06 02:41:54;;;;;;;3.38;1.20;;;9.70;99.90;;;;;;4985343;28;20042;-63
2024/02/06 02:44:20;;;;;;;9.48;2.20;;;9.70;99.90;;;;;;4981240;28;20408;-63
2024/02/06 02:46:45;;;;;;;20.58;3.55;;;9.70;99.90;;;;;;4986096;28;20054;-63
2024/02/06 02:49:13;;;;;;;16.45;2.85;;;9.70;99.90;;;;;;4982863;28;20046;-63
2024/02/06 02:51:39;;;;;;;7.72;1.83;;;9.70;99.90;;;;;;4982736;28;20085;-63
2024/02/06 02:54:05;;;;;;;6.18;1.75;;;9.70;99.90;;;;;;4983850;28;20084;-63
2024/02/06 02:56:31;;;;;;;14.48;2.72;;;9.70;99.90;;;;;;4981021;28;20115;-63
2024/02/06 02:58:57;;;;;;;20.83;3.70;;;9.70;99.90;;;;;;4981603;28;20053;-63
2024/02/06 03:01:23;;;;;;;6.40;1.50;;;9.70;99.90;;;;;;4983362;28;20397;-63
2024/02/06 03:03:48;;;;;;;16.17;2.30;;;9.70;99.90;;;;;;4981383;28;20080;-63
2024/02/06 03:06:20;;;;;;;12.68;2.30;;;9.70;99.90;;;;;;4983792;28;20046;-63
2024/02/06 03:08:46;;;;;;;10.77;1.67;;;9.70;99.90;;;;;;4981132;28;20058;-63
2024/02/06 03:11:12;;;;;;;10.82;1.98;;;9.70;99.90;;;;;;4983291;28;20053;-63
2024/02/06 03:13:41;;;;;;;12.30;2.63;;;9.70;99.90;;;;;;4980882;28;20088;-63
2024/02/06 03:16:07;;;;;;;19.30;2.72;;;9.70;99.90;;;;;;4987160;28;20089;-62
2024/02/06 03:18:33;;;;;;;14.38;3.10;;;9.80;99.90;;;;;;4982340;28;20421;-63
2024/02/06 03:20:59;;;;;;;14.23;2.95;;;9.70;99.90;;;;;;4982928;28;20034;-63
2024/02/06 03:23:24;;;;;;;16.75;3.55;;;9.70;99.90;;;;;;4989667;28;20123;-63
2024/02/06 03:25:51;;;;;;;16.10;2.78;;;9.70;99.90;;;;;;4993579;28;20077;-63
2024/02/06 03:28:19;;;;;;;12.07;2.83;;;9.70;99.90;;;;;;4983434;28;20039;-63
2024/02/06 03:30:45;;;;;;;14.35;2.97;;;9.70;99.90;;;;;;4980915;28;20037;-63
2024/02/06 03:33:11;;;;;;;10.68;2.50;;;9.70;99.90;;;;;;4982575;28;20054;-62
2024/02/06 03:35:38;;;;;;;16.75;3.88;;;9.70;99.90;;;;;;4980507;28;20085;-62
2024/02/06 03:38:05;;;;;;;23.83;3.97;;;9.70;99.90;;;;;;4984404;28;20438;-64
2024/02/06 03:40:32;;;;;;;15.25;3.22;;;9.70;99.90;;;;;;4981870;28;20047;-63
2024/02/06 03:42:59;;;;;;;8.93;2.38;;;9.60;99.90;;;;;;4984237;28;20049;-63
2024/02/06 03:45:25;;;;;;;18.83;3.88;;;9.60;99.90;;;;;;4985274;28;20046;-63
2024/02/06 03:47:50;;;;;;;11.13;2.17;;;9.60;99.90;;;;;;4980393;28;20042;-63
2024/02/06 03:50:16;;;;;;;6.25;1.55;;;9.60;99.90;;;;;;4993032;28;20133;-63
2024/02/06 03:52:42;;;;;;;9.43;2.63;;;9.60;99.90;;;;;;4978416;28;20541;-63
2024/02/06 03:55:08;;;;;;;27.02;4.20;;;9.70;99.90;;;;;;4978508;28;20496;-63
2024/02/06 03:57:34;;;;;;;12.55;3.50;;;9.60;99.90;;;;;;4993595;28;20046;-63
2024/02/06 04:00:00;;;;;;;17.90;3.58;;;9.60;99.90;;;;;;4986354;28;20038;-63
2024/02/06 04:02:25;;;;;;;14.45;2.53;;;9.60;99.90;;;;;;4983390;28;20512;-63
2024/02/06 04:04:51;;;;;;;6.53;1.65;;;9.60;99.90;;;;;;4987347;28;20464;-63
2024/02/06 04:07:17;;;;;;;21.70;3.42;;;9.70;99.90;;;;;;4985304;28;20171;-63
2024/02/06 04:09:43;;;;;;;29.90;4.38;;;9.70;99.90;;;;;;4977020;28;20035;-63
2024/02/06 04:12:09;;;;;;;15.45;2.08;;;9.70;99.90;;;;;;4987297;28;20053;-63
2024/02/06 04:14:36;;;;;;;21.17;3.60;;;9.70;99.90;;;;;;4985404;28;20247;-63
2024/02/06 04:17:01;;;;;;;18.73;2.83;;;9.70;99.90;;;;;;4983063;28;20100;-63
2024/02/06 04:19:27;;;;;;;22.63;3.22;;;9.60;99.90;;;;;;4986423;28;20128;-63
2024/02/06 04:21:53;;;;;;;15.95;2.92;;;9.70;99.90;;;;;;4986382;28;20575;-63
2024/02/06 04:24:19;;;;;;;29.00;4.82;;;9.70;99.90;;;;;;4990204;28;20069;-64
2024/02/06 04:26:47;;;;;;;10.07;2.15;;;9.70;99.90;;;;;;4981613;28;20046;-63
2024/02/06 04:29:13;;;;;;;23.17;3.75;;;9.70;99.90;;;;;;4965980;28;20055;-62
2024/02/06 04:31:40;;;;;;;12.20;2.33;;;9.70;99.90;;;;;;4981102;28;20046;-63
2024/02/06 04:34:07;;;;;;;14.10;2.55;;;9.70;99.90;;;;;;4988516;28;20056;-63
2024/02/06 04:36:36;;;;;;;17.42;2.75;;;9.80;99.90;;;;;;5009480;28;20057;-63
2024/02/06 04:39:01;;;;;;;12.13;2.53;;;9.70;99.90;;;;;;5022662;28;20124;-63
2024/02/06 04:41:27;;;;;;;29.98;4.68;;;9.70;99.90;;;;;;5026520;28;20152;-62
2024/02/06 04:43:53;;;;;;;16.67;2.22;;;9.80;99.90;;;;;;5020343;28;20041;-63
2024/02/06 04:46:19;;;;;;;28.60;3.78;;;9.70;99.90;;;;;;5025968;28;20048;-63
2024/02/06 04:48:45;;;;;;;18.48;3.33;;;9.70;99.90;;;;;;5005785;28;20042;-63
2024/02/06 04:51:10;;;;;;;9.07;2.10;;;9.70;99.90;;;;;;5029321;28;20065;-63
2024/02/06 04:53:36;;;;;;;15.05;2.38;;;9.70;99.90;;;;;;5026628;28;20107;-63
2024/02/06 04:56:03;;;;;;;16.55;2.95;;;9.80;99.90;;;;;;5008799;28;20041;-63
2024/02/06 04:58:29;;;;;;;15.68;3.15;;;9.80;99.90;;;;;;5007580;28;20038;-63
2024/02/06 05:00:55;;;;;;;22.33;3.67;;;9.70;99.90;;;;;;5009712;28;20072;-62
2024/02/06 05:03:20;;;;;;;10.95;3.25;;;9.70;99.90;;;;;;5026226;28;20068;-63
2024/02/06 05:05:46;;;;;;;14.60;2.55;;;9.70;99.90;;;;;;5027143;28;20039;-63
2024/02/06 05:08:12;;;;;;;14.88;2.95;;;9.70;99.90;;;;;;5017608;28;20056;-63
2024/02/06 05:10:38;;;;;;;17.23;2.53;;;9.70;99.90;;;;;;5027859;28;20045;-63
2024/02/06 05:13:03;;;;;;;17.63;2.83;;;9.80;99.90;;;;;;5026093;28;20979;-63
2024/02/06 05:15:30;;;;;;;14.63;3.03;;;9.70;99.90;;;;;;5026629;28;20037;-63
2024/02/06 05:17:56;;;;;;;21.98;3.50;;;9.80;99.90;;;;;;5007400;28;20111;-63
2024/02/06 05:20:22;;;;;;;26.05;4.25;;;9.70;99.90;;;;;;5026002;28;20041;-63
2024/02/06 05:22:48;;;;;;;8.48;1.20;;;9.80;99.90;;;;;;5022567;28;20059;-63
2024/02/06 05:25:13;;;;;;;24.95;4.35;;;9.80;99.90;;;;;;5030579;28;20448;-63
2024/02/06 05:27:39;;;;;;;23.10;3.38;;;9.80;99.90;;;;;;5029240;28;20037;-63
2024/02/06 05:30:06;;;;;;;9.65;1.98;;;9.80;99.90;;;;;;5026041;28;20083;-63
2024/02/06 05:32:35;;;;;;;24.25;3.65;;;9.80;99.90;;;;;;5031204;28;20087;-63
2024/02/06 05:35:02;;;;;;;26.40;3.38;;;9.80;99.90;;;;;;5020072;28;20713;-64
2024/02/06 05:37:28;;;;;;;13.95;1.63;;;9.80;99.90;;;;;;5029820;28;20137;-63
2024/02/06 05:39:54;;;;;;;11.68;1.90;;;9.80;99.90;;;;;;5028618;28;20132;-63
2024/02/06 05:42:20;;;;;;;5.68;1.90;;;9.90;99.90;;;;;;5006232;28;20033;-63
2024/02/06 05:44:46;;;;;;;20.20;2.67;;;9.90;99.90;;;;;;5022285;28;20056;-63
2024/02/06 05:47:12;;;;;;;17.38;2.85;;;9.90;99.90;;;;;;5024736;28;20053;-63
2024/02/06 05:49:38;;;;;;;26.95;4.68;;;9.90;99.90;;;;;;5023708;28;20087;-63
2024/02/06 05:52:04;;;;;;;17.73;3.03;;;9.90;99.90;;;;;;5023519;28;20085;-63
2024/02/06 05:54:30;;;;;;;15.20;3.17;;;9.90;99.90;;;;;;4990109;28;20053;-64
2024/02/06 05:56:55;;;;;;;13.95;2.50;;;9.90;99.90;;;;;;5022322;28;20119;-63
2024/02/06 05:59:23;;;;;;;19.20;2.58;;;9.90;99.90;;;;;;5026008;28;20049;-63
2024/02/06 06:01:49;;;;;;;16.13;2.67;;;9.90;99.90;;;;;;5022865;28;20049;-63
2024/02/06 06:04:15;;;;;;;23.50;3.22;;;9.90;99.90;;;;;;5025743;28;20052;-63
2024/02/06 06:06:42;;;;;;;20.88;2.92;;;9.90;99.90;;;;;;5004932;28;20123;-63
2024/02/06 06:09:09;;;;;;;8.73;2.17;;;9.90;99.90;;;;;;5024288;28;20482;-63
2024/02/06 06:11:35;;;;;;;7.88;1.50;;;9.90;99.90;;;;;;5023973;28;20541;-63
2024/02/06 06:14:01;;;;;;;5.80;1.70;;;9.90;99.90;;;;;;5023359;28;20091;-63
2024/02/06 06:16:27;;;;;;;15.25;2.42;;;10.00;99.90;;;;;;5023946;28;20045;-63
2024/02/06 06:18:53;;;;;;;22.85;4.22;;;10.00;99.90;;;;;;4987677;28;20415;-63
2024/02/06 06:21:19;;;;;;;6.65;1.80;;;10.00;99.90;;;;;;5024341;28;20071;-63
2024/02/06 06:23:46;;;;;;;16.67;2.42;;;10.00;99.90;;;;;;5024785;28;20589;-63
2024/02/06 06:26:11;;;;;;;5.93;1.80;;;10.00;99.90;;;;;;5016872;28;20408;-63
2024/02/06 06:28:37;;;;;;;17.40;2.92;;;10.00;99.90;;;;;;5005324;28;20054;-63
2024/02/06 06:31:09;;;;;;;9.05;2.17;;;10.00;99.90;;;;;;5015904;28;20037;-63
2024/02/06 06:33:35;;;;;;;9.43;2.03;;;10.00;99.90;;;;;;5026875;28;20455;-63
2024/02/06 06:36:01;;;;;;;8.73;2.35;;;10.00;99.90;;;;;;5020930;28;20053;-63
2024/02/06 06:38:28;;;;;;;6.75;1.50;;;10.00;99.90;;;;;;5024469;28;20529;-63
2024/02/06 06:40:54;;;;;;;20.15;3.72;;;10.00;99.90;;;;;;5025294;28;20528;-63
2024/02/06 06:43:19;;;;;;;18.20;3.45;;;10.00;99.90;;;;;;5024105;28;20038;-63
2024/02/06 06:45:45;;;;;;;5.68;1.40;;;10.00;99.90;;;;;;5028366;28;20088;-63
2024/02/06 06:48:11;;;;;;;17.02;3.53;;;10.00;99.90;;;;;;5023316;28;20103;-63
2024/02/06 06:50:37;;;;;;;5.47;1.77;;;10.00;99.90;;;;;;5031093;28;20117;-63
2024/02/06 06:53:02;;;;;;;8.07;1.63;;;10.10;99.90;;;;;;5007932;28;20712;-63
2024/02/06 06:55:28;;;;;;;12.27;2.92;;;10.20;99.90;;;;;;5020356;28;20107;-63
2024/02/06 06:57:54;;;;;;;33.47;4.50;;;10.10;99.90;;;;;;5017709;28;20463;-63
2024/02/06 07:00:20;;;;;;;17.92;2.88;;;10.20;99.90;;;;;;5024388;28;20535;-63
2024/02/06 07:02:47;;;;;;;10.57;1.77;;;10.10;99.90;;;;;;5003759;28;20128;-63
2024/02/06 07:05:12;;;;;;;13.90;1.98;;;10.20;99.90;;;;;;5008375;28;20164;-63
2024/02/06 07:07:39;;;;;;;34.30;4.35;;;10.20;99.90;;;;;;5022674;28;20073;-63
2024/02/06 07:10:06;;;;;;;13.30;2.58;;;10.20;99.90;;;;;;5021416;28;20443;-63
2024/02/06 07:12:32;;;;;;;14.50;2.35;;;10.20;99.90;;;;;;5001147;28;20164;-63
2024/02/06 07:14:58;;;;;;;7.70;1.85;;;10.20;99.90;;;;;;5020973;28;20044;-63
2024/02/06 07:17:24;;;;;;;14.45;2.85;;;10.20;99.90;;;;;;5021119;28;20049;-63
2024/02/06 07:19:50;;;;;;;7.28;1.35;;;10.20;99.90;;;;;;5020578;28;20084;-63
2024/02/06 07:22:16;;;;;;;7.35;1.73;;;10.20;99.90;;;;;;5023461;28;20037;-63
2024/02/06 07:24:44;;;;;;;17.33;2.83;;;10.20;99.90;;;;;;4986755;28;20049;-63
2024/02/06 07:27:10;;;;;;;6.90;1.48;;;10.20;99.90;;;;;;5004363;28;20092;-63
2024/02/06 07:29:37;;;;;;;4.97;1.65;;;10.20;99.90;;;;;;5021945;28;20042;-63
2024/02/06 07:32:03;;;;;;;6.35;1.67;;;10.20;99.90;;;;;;5022457;28;20120;-63
2024/02/06 07:34:29;;;;;;;12.93;2.10;;;10.20;99.90;;;;;;5010617;28;20064;-63
2024/02/06 07:36:55;;;;;;;17.08;2.38;;;10.20;99.90;;;;;;4989958;28;20065;-63
2024/02/06 07:39:21;;;;;;;7.55;1.67;;;10.10;99.90;;;;;;4988586;28;20054;-63
2024/02/06 07:41:47;;;;;;;12.52;2.13;;;10.10;99.90;;;;;;4972634;28;20057;-63
2024/02/06 07:44:13;;;;;;;3.35;0.95;;;10.00;99.90;;;;;;4991499;28;20316;-63
2024/02/06 07:46:39;;;;;;;13.73;3.42;;;10.00;99.90;;;;;;4979882;28;20054;-63
2024/02/06 07:49:04;;;;;;;21.92;3.25;;;10.00;99.90;;;;;;4984682;28;20054;-63
2024/02/06 07:51:30;;;;;;;20.35;3.33;;;9.90;99.90;;;;;;4996742;28;20400;-63
2024/02/06 07:53:56;;;;;;;20.23;2.92;;;9.90;99.90;;;;;;4984849;28;20082;-63
2024/02/06 07:56:22;;;;;;;14.00;2.60;;;9.90;99.90;;;;;;4981839;28;20503;-63
2024/02/06 07:58:48;;;;;;;17.67;2.88;;;9.90;99.90;;;;;;4964094;28;20061;-64
2024/02/06 08:01:15;;;;;;;3.03;1.48;;;9.90;99.90;;;;;;4988106;28;20878;-63
2024/02/06 08:03:41;;;;;;;5.78;1.40;;;9.90;99.90;;;;;;4982152;28;20129;-63
2024/02/06 08:06:07;;;;;;;13.30;2.00;;;9.90;99.90;;;;;;4981658;28;20543;-64
2024/02/06 08:08:33;;;;;;;18.75;3.30;;;9.90;99.90;;;;;;4983117;28;20068;-63
2024/02/06 08:10:59;;;;;;;26.48;3.97;;;9.90;99.90;;;;;;4978723;28;20053;-64
2024/02/06 08:13:25;;;;;;;18.17;2.80;;;9.90;99.90;;;;;;4982956;28;20068;-63
2024/02/06 08:15:51;;;;;;;8.25;1.75;;;9.90;99.90;;;;;;4973910;28;20804;-64
2024/02/06 08:18:16;;;;;;;15.13;2.72;;;9.90;99.90;;;;;;4975775;28;20588;-64
2024/02/06 08:20:42;;;;;;;10.15;2.30;;;9.90;99.90;;;;;;4982750;28;20081;-63
2024/02/06 08:23:08;;;;;;;4.68;1.35;;;9.90;99.90;;;;;;4986850;28;20413;-64
2024/02/06 08:25:35;;;;;;;12.23;2.30;;;9.90;99.90;;;;;;4987053;28;20125;-64
2024/02/06 08:28:00;;;;;;;11.60;1.52;;;9.90;99.90;;;;;;4991004;28;20042;-63
2024/02/06 08:30:26;;;;;;;18.55;3.15;;;9.90;99.90;;;;;;4987157;28;20050;-64
2024/02/06 08:32:52;;;;;;;15.13;2.15;;;9.90;99.90;;;;;;4993028;28;20053;-63
2024/02/06 08:35:18;;;;;;;18.77;3.15;;;9.90;99.90;;;;;;4984526;28;20038;-63
2024/02/06 08:37:44;;;;;;;12.65;2.38;;;9.90;99.90;;;;;;5000119;28;20152;-63
2024/02/06 08:40:10;;;;;;;27.45;4.05;;;9.90;99.90;;;;;;5014414;28;20231;-63
2024/02/06 08:42:37;;;;;;;5.60;1.80;;;9.90;99.90;;;;;;5003505;28;20056;-64
2024/02/06 08:45:03;;;;;;;16.60;3.05;;;9.90;99.90;;;;;;5004870;28;20469;-64
2024/02/06 08:47:29;;;;;;;25.45;3.30;;;9.90;99.90;;;;;;5006741;28;20091;-64
2024/02/06 08:49:55;;;;;;;10.93;2.30;;;10.00;99.90;;;;;;5004686;28;20057;-64
2024/02/06 08:52:21;;;;;;;11.27;2.65;;;10.00;99.90;;;;;;5005041;28;20050;-64
2024/02/06 08:54:47;;;;;;;18.25;3.72;;;10.00;99.90;;;;;;5003607;28;20496;-64
2024/02/06 08:57:13;;;;;;;16.02;3.25;;;10.00;99.90;;;;;;5011409;28;20136;-64
2024/02/06 08:59:39;;;;;;;9.00;2.00;;;9.90;99.90;;;;;;5004304;28;20063;-63
2024/02/06 09:02:05;;;;;;;10.35;2.15;;;9.90;99.90;;;;;;5003570;28;20096;-64
2024/02/06 09:04:31;;;;;;;7.10;1.27;;;10.00;99.90;;;;;;5004056;28;20050;-64
2024/02/06 09:06:58;;;;;;;16.05;2.55;;;10.00;99.90;;;;;;5002916;28;20044;-64
2024/02/06 09:09:24;;;;;;;15.05;1.45;;;10.00;99.90;;;;;;5006198;28;20054;-64
2024/02/06 09:11:51;;;;;;;3.95;1.40;;;10.10;99.90;;;;;;5007516;28;20057;-64
2024/02/06 09:14:17;;;;;;;21.08;3.35;;;10.10;99.90;;;;;;5013380;28;20125;-64
2024/02/06 09:16:43;;;;;;;11.38;2.70;;;10.20;99.90;;;;;;5004205;28;20087;-64
2024/02/06 09:19:10;;;;;;;21.77;2.97;;;10.20;99.90;;;;;;5016282;28;20491;-64
2024/02/06 09:21:36;;;;;;;22.48;2.83;;;10.20;99.90;;;;;;5003722;28;20077;-64
2024/02/06 09:24:02;;;;;;;4.65;1.08;;;10.30;99.90;;;;;;5019564;28;20084;-64
2024/02/06 09:26:30;;;;;;;8.00;1.63;;;10.30;99.90;;;;;;5010971;28;20042;-64
2024/02/06 09:28:56;;;;;;;13.13;2.20;;;10.30;99.90;;;;;;5003565;28;20187;-64
2024/02/06 09:31:24;;;;;;;12.10;1.95;;;10.40;99.90;;;;;;5006060;28;20057;-64
2024/02/06 09:33:50;;;;;;;14.20;1.90;;;10.40;99.90;;;;;;5003515;28;20041;-64
2024/02/06 09:36:15;;;;;;;9.35;1.73;;;10.40;99.90;;;;;;5007894;28;20049;-64
2024/02/06 09:38:41;;;;;;;31.30;4.20;;;10.50;99.90;;;;;;5031282;28;20597;-64
2024/02/06 09:41:09;;;;;;;21.60;3.75;;;10.50;99.90;;;;;;5011852;28;20043;-64
2024/02/06 09:43:36;;;;;;;21.38;3.38;;;10.50;99.90;;;;;;5005223;28;20152;-64
2024/02/06 09:46:01;;;;;;;7.85;1.70;;;10.50;99.90;;;;;;5019630;28;20054;-64
2024/02/06 09:48:27;;;;;;;28.45;4.50;;;10.50;99.90;;;;;;5023816;28;20060;-64
2024/02/06 09:50:56;;;;;;;13.18;2.20;;;10.50;99.90;;;;;;5023063;28;20495;-64
2024/02/06 09:53:30;;;;;;;6.30;1.88;;;10.50;99.90;;;;;;5023321;28;20076;-64
2024/02/06 09:55:56;;;;;;;12.48;2.25;;;10.60;99.90;;;;;;5018571;28;20159;-64
2024/02/06 09:58:23;;;;;;;15.85;3.30;;;10.60;99.90;;;;;;5005549;28;20046;-64
2024/02/06 10:00:52;;;;;;;15.43;2.60;;;10.70;99.90;;;;;;5003703;28;20071;-64
2024/02/06 10:03:21;;;;;;;33.45;5.03;;;10.70;99.90;;;;;;5010786;28;20435;-64
2024/02/06 10:05:52;;;;;;;5.90;1.60;;;10.70;99.90;;;;;;5024747;28;20407;-64
2024/02/06 10:08:18;;;;;;;15.43;2.88;;;10.70;99.90;;;;;;5022424;28;20053;-64
2024/02/06 10:10:47;;;;;;;14.13;2.47;;;10.70;99.90;;;;;;5027487;28;20144;-64
2024/02/06 10:13:14;;;;;;;17.63;2.42;;;10.80;99.90;;;;;;5005508;28;20582;-64
2024/02/06 10:15:40;;;;;;;13.90;2.83;;;10.80;99.90;;;;;;5021504;28;20499;-64
2024/02/06 10:18:06;;;;;;;15.57;3.25;;;10.80;99.90;;;;;;5022433;28;20508;-64
2024/02/06 10:20:50;;;;;;;16.05;2.05;;;10.80;99.90;;;;;;5001836;28;20076;-63
2024/02/06 10:23:19;;;;;;;5.97;1.45;;;10.80;99.90;;;;;;5023002;28;20049;-63
2024/02/06 10:25:47;;;;;;;6.30;1.83;;;10.90;99.90;;;;;;5025136;28;20045;-63
2024/02/06 10:28:23;;;;;;;15.90;3.13;;;10.90;99.90;;;;;;5004107;28;20956;-63
2024/02/06 10:30:54;;;;;;;8.98;2.22;;;10.90;99.90;;;;;;5003696;28;20088;-63
2024/02/06 10:33:20;;;;;;;18.73;2.38;;;10.90;99.90;;;;;;5020617;28;20043;-63
2024/02/06 10:35:45;;;;;;;3.63;1.48;;;11.00;99.90;;;;;;5027051;28;20049;-63
2024/02/06 10:38:15;;;;;;;19.48;2.45;;;11.10;99.90;;;;;;5020382;28;20056;-63
2024/02/06 10:40:45;;;;;;;20.08;3.45;;;11.10;99.90;;;;;;5022513;28;20044;-63
2024/02/06 10:43:17;;;;;;;8.18;1.77;;;11.10;99.90;;;;;;5001891;28;20094;-62
2024/02/06 10:45:44;;;;;;;11.65;2.88;;;11.20;99.90;;;;;;5025103;28;20053;-63
2024/02/06 10:48:11;;;;;;;15.93;3.05;;;11.20;99.90;;;;;;5023787;28;20049;-63
2024/02/06 10:50:37;;;;;;;17.15;2.53;;;11.20;99.90;;;;;;5008544;28;20049;-63
2024/02/06 10:53:04;;;;;;;13.30;2.85;;;11.20;99.90;;;;;;5032462;28;20048;-62
2024/02/06 10:55:30;;;;;;;12.70;2.45;;;11.20;99.90;;;;;;5002318;28;20073;-63
2024/02/06 10:58:06;;;;;;;11.18;2.50;;;11.20;99.90;;;;;;5027313;28;20562;-63
2024/02/06 11:00:34;;;;;;;25.05;4.63;;;11.20;99.90;;;;;;5015722;28;20084;-63
2024/02/06 11:03:05;;;;;;;15.25;2.38;;;11.30;99.90;;;;;;5030563;28;20111;-63
2024/02/06 11:05:44;;;;;;;20.23;3.67;;;11.20;99.90;;;;;;5028076;28;20488;-62
2024/02/06 11:08:15;;;;;;;9.02;2.10;;;11.20;99.90;;;;;;5030580;28;20065;-63
2024/02/06 11:10:44;;;;;;;11.07;1.65;;;11.20;99.90;;;;;;5026351;28;20409;-63
2024/02/06 11:13:36;;;;;;;15.35;2.88;;;11.30;99.90;;;;;;5004470;28;20045;-63
2024/02/06 11:16:04;;;;;;;18.85;3.55;;;11.30;99.90;;;;;;5007476;28;20118;-62
2024/02/06 11:18:48;;;;;;;27.40;3.38;;;11.30;99.90;;;;;;5023327;28;20068;-62
2024/02/06 11:21:17;;;;;;;8.63;2.00;;;11.30;99.90;;;;;;5030753;28;20037;-63
2024/02/06 11:23:44;;;;;;;14.63;2.88;;;11.30;99.90;;;;;;5012818;28;20052;-63
2024/02/06 11:26:11;;;;;;;16.85;2.22;;;11.30;99.90;;;;;;5031671;28;20145;-63
2024/02/06 11:28:37;;;;;;;6.22;1.83;;;11.30;99.90;;;;;;5022528;28;20068;-62
2024/02/06 11:31:04;;;;;;;7.97;2.15;;;11.30;99.90;;;;;;5023119;28;20057;-63
2024/02/06 11:33:30;;;;;;;8.95;2.20;;;11.20;99.90;;;;;;5022830;28;20529;-63
2024/02/06 11:36:10;;;;;;;11.32;1.67;;;11.20;99.90;;;;;;5006434;28;20127;-63
2024/02/06 11:38:37;;;;;;;14.57;2.55;;;11.20;99.90;;;;;;5019644;28;20057;-63
2024/02/06 11:41:17;;;;;;;5.13;1.50;;;11.20;99.90;;;;;;5029986;28;20040;-63
2024/02/06 11:43:43;;;;;;;20.23;3.75;;;11.20;99.90;;;;;;5020961;28;20097;-62
2024/02/06 11:46:09;;;;;;;16.25;2.50;;;11.20;99.90;;;;;;5023361;28;20516;-62
2024/02/06 11:48:35;;;;;;;16.25;2.45;;;11.20;99.90;;;;;;5008411;28;20135;-63
2024/02/06 11:51:01;;;;;;;20.80;3.17;;;11.30;99.90;;;;;;5028265;28;20052;-63
2024/02/06 11:53:28;;;;;;;10.70;2.55;;;11.30;99.90;;;;;;5007155;28;20034;-63
2024/02/06 11:55:57;;;;;;;8.02;1.48;;;11.30;99.90;;;;;;5017415;28;20049;-63
2024/02/06 11:58:27;;;;;;;13.90;2.90;;;11.30;99.90;;;;;;5024775;28;20052;-63
2024/02/06 12:00:54;;;;;;;9.60;2.95;;;11.40;99.90;;;;;;5019245;28;20515;-62
2024/02/06 12:03:20;;;;;;;29.60;4.05;;;11.40;99.90;;;;;;5025380;28;20044;-62
2024/02/06 12:05:46;;;;;;;13.70;2.40;;;11.40;99.90;;;;;;5019707;28;20448;-62
2024/02/06 12:08:19;;;;;;;7.80;1.60;;;11.40;99.90;;;;;;5021288;28;20048;-62
2024/02/06 12:10:46;;;;;;;19.85;2.88;;;11.50;99.90;;;;;;4998949;28;20079;-63
2024/02/06 12:13:12;;;;;;;8.13;1.15;;;11.40;99.90;;;;;;5003189;28;20112;-63
2024/02/06 12:15:39;;;;;;;22.98;4.60;;;11.40;99.90;;;;;;5004416;28;20430;-63
2024/02/06 12:18:12;;;;;;;10.85;2.13;;;11.40;99.90;;;;;;5001855;28;20052;-63
2024/02/06 12:20:40;;;;;;;13.57;2.90;;;11.50;99.90;;;;;;5001451;28;20060;-63
2024/02/06 12:23:07;;;;;;;8.68;2.25;;;11.50;99.90;;;;;;5021077;28;20492;-62
2024/02/06 12:25:34;;;;;;;10.52;1.98;;;11.50;99.90;;;;;;5001336;28;20484;-64
2024/02/06 12:28:13;;;;;;;8.05;2.65;;;11.40;99.90;;;;;;5022411;28;20041;-62
2024/02/06 12:30:41;;;;;;;16.98;2.60;;;11.40;99.90;;;;;;5010993;28;20053;-63
2024/02/06 12:33:07;;;;;;;16.27;2.70;;;11.40;99.90;;;;;;5013251;28;20164;-62
2024/02/06 12:35:34;;;;;;;9.35;2.15;;;11.40;99.90;;;;;;5004007;28;20103;-62
2024/02/06 12:38:03;;;;;;;17.67;3.03;;;11.40;99.90;;;;;;5020319;28;20140;-62
2024/02/06 12:40:34;;;;;;;20.27;2.80;;;11.50;99.90;;;;;;5003423;28;20503;-63
2024/02/06 12:43:05;;;;;;;9.85;1.48;;;11.40;99.90;;;;;;5016003;28;20088;-63